Time;durP1;ratioP1;P1;durP2;ratioP2;P2;SDS_P1;SDS_P2;PMS_P1;PMS_P2;Temp;Humidity;BMP_temperature;BMP_pressure;BME280_temperature;BME280_humidity;BME280_pressure;Samples;Min_cycle;Max_cycle;Signal;HPM_P1;HPM_P2
2021/11/21 00:00:24;;;;;;;70.53;30.83;;;;;;;6.33;100.00;101344.47;2090564;28;20100;-68
2021/11/21 00:01:24;;;;;;;69.03;32.63;;;;;;;6.34;100.00;101347.94;2091224;28;20429;-68
2021/11/21 00:02:25;;;;;;;71.20;31.70;;;;;;;6.34;100.00;101341.00;2091230;28;20023;-68
2021/11/21 00:03:25;;;;;;;72.53;31.07;;;;;;;6.35;100.00;101340.13;2091259;28;20047;-68
2021/11/21 00:04:25;;;;;;;73.30;31.97;;;;;;;6.34;100.00;101343.59;2090839;28;20025;-68
2021/11/21 00:05:25;;;;;;;66.40;28.70;;;;;;;6.35;100.00;101339.25;2090912;28;20025;-70
2021/11/21 00:06:27;;;;;;;73.27;30.37;;;;;;;6.34;100.00;101330.66;2091218;28;20107;-69
2021/11/21 00:07:27;;;;;;;71.05;31.65;;;;;;;6.35;100.00;101328.88;2091197;28;20559;-70
2021/11/21 00:08:27;;;;;;;74.50;31.37;;;;;;;6.35;100.00;101337.53;2091119;28;20029;-69
2021/11/21 00:09:28;;;;;;;65.23;28.73;;;;;;;6.35;100.00;101342.72;2091239;28;20059;-69
2021/11/21 00:10:33;;;;;;;73.23;30.83;;;;;;;6.36;100.00;101338.41;2091071;28;20033;-68
2021/11/21 00:11:33;;;;;;;73.45;30.40;;;;;;;6.37;100.00;101329.72;2091158;28;20025;-68
2021/11/21 00:12:34;;;;;;;70.23;29.83;;;;;;;6.36;100.00;101336.63;2091032;28;20031;-69
2021/11/21 00:13:34;;;;;;;78.80;33.07;;;;;;;6.36;100.00;101333.22;2091159;28;20032;-68
2021/11/21 00:14:35;;;;;;;64.37;28.60;;;;;;;6.36;100.00;101328.88;2090413;28;20021;-70
2021/11/21 00:15:36;;;;;;;67.47;30.95;;;;;;;6.36;100.00;101326.28;2090500;28;20099;-69
2021/11/21 00:16:36;;;;;;;73.50;31.02;;;;;;;6.36;100.00;101326.28;2091102;28;20028;-69
2021/11/21 00:17:37;;;;;;;71.03;30.52;;;;;;;6.37;100.00;101320.19;2091087;28;20470;-68
2021/11/21 00:18:37;;;;;;;71.43;31.07;;;;;;;6.36;100.00;101321.09;2091087;28;20104;-69
2021/11/21 00:19:40;;;;;;;77.57;34.13;;;;;;;6.36;100.00;101318.50;2091116;28;20079;-70
2021/11/21 00:20:42;;;;;;;74.07;30.08;;;;;;;6.36;100.00;101318.50;2091056;28;20413;-67
2021/11/21 00:21:42;;;;;;;69.57;29.25;;;;;;;6.35;100.00;101316.78;2091069;28;20466;-69
2021/11/21 00:22:44;;;;;;;73.70;30.50;;;;;;;6.36;100.00;101312.47;2090389;28;20016;-69
2021/11/21 00:23:45;;;;;;;71.63;30.38;;;;;;;6.36;100.00;101315.91;2090451;28;20024;-69
2021/11/21 00:24:45;;;;;;;74.07;31.15;;;;;;;6.38;100.00;101310.69;2090953;28;20029;-69
2021/11/21 00:25:46;;;;;;;76.60;31.10;;;;;;;6.37;100.00;101307.22;2091045;28;20064;-70
2021/11/21 00:26:46;;;;;;;73.70;31.33;;;;;;;6.36;100.00;101308.13;2090823;28;20053;-70
2021/11/21 00:27:46;;;;;;;69.33;27.97;;;;;;;6.35;100.00;101306.41;2090996;28;20025;-69
2021/11/21 00:28:47;;;;;;;71.07;30.17;;;;;;;6.37;100.00;101303.81;2091010;28;20099;-69
2021/11/21 00:29:50;;;;;;;75.60;32.17;;;;;;;6.35;100.00;101301.25;2091029;28;20386;-69
2021/11/21 00:30:50;;;;;;;76.22;32.58;;;;;;;6.35;100.00;101305.56;2090895;28;20029;-69
2021/11/21 00:31:50;;;;;;;70.07;29.37;;;;;;;6.36;100.00;101304.69;2091011;28;20021;-68
2021/11/21 00:32:51;;;;;;;79.77;32.20;;;;;;;6.37;100.00;101298.63;2090969;28;20383;-68
2021/11/21 00:33:51;;;;;;;64.53;27.63;;;;;;;6.36;100.00;101297.75;2090997;28;20078;-68
2021/11/21 00:34:52;;;;;;;68.07;28.60;;;;;;;6.36;100.00;101292.56;2090267;28;20055;-67
2021/11/21 00:35:52;;;;;;;68.70;28.57;;;;;;;6.37;100.00;101299.47;2082035;28;20021;-68
2021/11/21 00:36:53;;;;;;;77.07;31.15;;;;;;;6.38;100.00;101296.00;2090218;28;20024;-67
2021/11/21 00:37:53;;;;;;;64.67;28.83;;;;;;;6.38;100.00;101295.13;2090261;28;20048;-68
2021/11/21 00:38:53;;;;;;;71.10;29.30;;;;;;;6.37;100.00;101296.88;2082003;28;20395;-69
2021/11/21 00:39:56;;;;;;;73.47;28.83;;;;;;;6.36;100.00;101289.13;2090371;28;20075;-69
2021/11/21 00:40:56;;;;;;;73.85;30.13;;;;;;;6.37;100.00;101293.44;2090813;28;20029;-70
2021/11/21 00:41:56;;;;;;;71.67;29.33;;;;;;;6.36;100.00;101292.56;2090933;28;20430;-68
2021/11/21 00:42:57;;;;;;;71.53;26.53;;;;;;;6.38;100.00;101292.53;2090965;28;20021;-68
2021/11/21 00:43:58;;;;;;;69.47;28.02;;;;;;;6.38;100.00;101284.78;2090888;28;20028;-68
2021/11/21 00:44:58;;;;;;;68.23;27.53;;;;;;;6.39;100.00;101286.47;2090841;28;20363;-68
2021/11/21 00:45:58;;;;;;;70.20;29.00;;;;;;;6.39;100.00;101289.94;2090195;28;20032;-68
2021/11/21 00:46:59;;;;;;;71.93;28.67;;;;;;;6.40;100.00;101289.03;2090297;28;20131;-68
2021/11/21 00:47:59;;;;;;;72.23;27.93;;;;;;;6.40;100.00;101289.03;2090111;28;20051;-68
2021/11/21 00:49:01;;;;;;;68.18;28.48;;;;;;;6.40;100.00;101289.03;2081805;28;20029;-70
2021/11/21 00:50:03;;;;;;;72.55;27.98;;;;;;;6.40;100.00;101286.44;2090269;28;20417;-68
2021/11/21 00:51:05;;;;;;;66.55;28.35;;;;;;;6.40;100.00;101294.22;2090742;28;20467;-69
2021/11/21 00:52:05;;;;;;;;;;;;;;;6.41;100.00;101284.72;2091274;28;20048;-68
2021/11/21 00:53:06;;;;;;;68.88;26.35;;;;;;;6.41;100.00;101282.13;2090821;28;19908;-68
2021/11/21 00:54:21;;;;;;;72.27;27.53;;;;;;;6.40;100.00;101276.06;2090897;28;20025;-67
2021/11/21 00:55:31;;;;;;;66.53;24.95;;;;;;;6.41;100.00;101280.41;2090103;28;20660;-67
2021/11/21 00:56:32;;;;;;;64.80;25.50;;;;;;;6.41;100.00;101275.22;2090329;28;20021;-69
2021/11/21 00:57:32;;;;;;;62.33;26.13;;;;;;;6.42;100.00;101281.25;2090808;28;20032;-70
2021/11/21 00:58:34;;;;;;;69.23;25.97;;;;;;;6.41;100.00;101280.41;2090754;28;20558;-68
2021/11/21 00:59:34;;;;;;;69.72;28.40;;;;;;;6.41;100.00;101267.44;2090774;28;20016;-70
2021/11/21 01:00:36;;;;;;;63.85;26.38;;;;;;;6.41;100.00;101272.63;2090739;28;20021;-66
2021/11/21 01:01:36;;;;;;;70.50;27.60;;;;;;;6.41;100.00;101277.81;2090636;28;20025;-68
2021/11/21 01:02:41;;;;;;;62.87;25.77;;;;;;;6.41;100.00;101270.03;2090721;28;20048;-67
2021/11/21 01:03:41;;;;;;;65.45;26.42;;;;;;;6.40;100.00;101265.72;2090119;28;20024;-67
2021/11/21 01:04:42;;;;;;;59.17;23.80;;;;;;;6.40;100.00;101268.31;2090224;28;20020;-69
2021/11/21 01:05:44;;;;;;;63.20;24.30;;;;;;;6.41;100.00;101261.38;2090699;28;20283;-67
2021/11/21 01:06:45;;;;;;;64.05;27.85;;;;;;;6.42;100.00;101261.38;2090036;28;20032;-69
2021/11/21 01:07:45;;;;;;;65.82;26.13;;;;;;;6.43;100.00;101263.06;2090046;28;20029;-68
2021/11/21 01:08:45;;;;;;;66.93;26.13;;;;;;;6.42;100.00;101261.38;2090674;28;20091;-67
2021/11/21 01:09:46;;;;;;;62.00;24.73;;;;;;;6.41;100.00;101264.84;2090684;28;20017;-68
2021/11/21 01:10:49;;;;;;;62.07;25.43;;;;;;;6.42;100.00;101260.50;2090567;28;20029;-69
2021/11/21 01:11:49;;;;;;;63.78;25.67;;;;;;;6.42;100.00;101256.19;2090687;28;20025;-68
2021/11/21 01:12:53;;;;;;;64.47;25.90;;;;;;;6.42;100.00;101255.31;2090660;28;20485;-69
2021/11/21 01:13:54;;;;;;;65.80;23.58;;;;;;;6.41;100.00;101264.84;2090515;28;20351;-68
2021/11/21 01:14:54;;;;;;;65.67;24.70;;;;;;;6.41;100.00;101270.03;2090682;28;20489;-69
2021/11/21 01:15:55;;;;;;;65.60;27.20;;;;;;;6.40;100.00;101257.94;2090481;28;20047;-67
2021/11/21 01:16:56;;;;;;;62.75;24.65;;;;;;;6.40;100.00;101268.31;2089878;28;20050;-67
2021/11/21 01:17:58;;;;;;;68.53;27.30;;;;;;;6.40;100.00;101255.34;2090593;28;20573;-68
2021/11/21 01:18:58;;;;;;;70.65;27.35;;;;;;;6.41;100.00;101261.38;2090612;28;20032;-68
2021/11/21 01:20:02;;;;;;;58.90;24.10;;;;;;;6.42;100.00;101263.09;2089980;28;20066;-69
2021/11/21 01:21:04;;;;;;;58.75;24.23;;;;;;;6.41;100.00;101254.47;2090013;28;20020;-70
2021/11/21 01:22:04;;;;;;;62.03;27.15;;;;;;;6.41;100.00;101264.84;2090621;28;20028;-68
2021/11/21 01:23:04;;;;;;;62.73;27.23;;;;;;;6.41;100.00;101263.97;2090610;28;20039;-68
2021/11/21 01:24:05;;;;;;;61.28;25.40;;;;;;;6.42;100.00;101265.69;2089921;28;20517;-68
2021/11/21 01:25:08;;;;;;;62.00;24.77;;;;;;;6.42;100.00;101261.38;2089986;28;20457;-68
2021/11/21 01:26:09;;;;;;;61.60;25.58;;;;;;;6.42;100.00;101258.78;2090376;28;20033;-68
2021/11/21 01:27:09;;;;;;;60.90;23.73;;;;;;;6.43;100.00;101262.19;2090640;28;20036;-68
2021/11/21 01:28:11;;;;;;;59.77;25.50;;;;;;;6.45;100.00;101263.03;2090567;28;20017;-68
2021/11/21 01:29:11;;;;;;;61.58;24.75;;;;;;;6.46;100.00;101256.13;2090508;28;20056;-67
2021/11/21 01:30:16;;;;;;;57.67;23.80;;;;;;;6.46;100.00;101261.31;2090464;28;20153;-66
2021/11/21 01:31:17;;;;;;;65.28;24.92;;;;;;;6.43;100.00;101252.69;2090507;28;20367;-68
2021/11/21 01:32:18;;;;;;;59.75;23.77;;;;;;;6.43;100.00;101252.69;2090467;28;20109;-67
2021/11/21 01:33:18;;;;;;;62.50;24.77;;;;;;;6.46;100.00;101256.13;2090539;28;20032;-67
2021/11/21 01:34:18;;;;;;;61.17;25.25;;;;;;;6.46;100.00;101251.78;2089767;28;20028;-68
2021/11/21 01:35:19;;;;;;;62.83;24.40;;;;;;;6.47;100.00;101250.06;2089912;28;20036;-66
2021/11/21 01:36:19;;;;;;;65.00;25.60;;;;;;;6.46;100.00;101251.78;2089845;28;20040;-68
2021/11/21 01:37:19;;;;;;;66.90;26.57;;;;;;;6.46;100.00;101261.31;2089805;28;20552;-68
2021/11/21 01:38:20;;;;;;;56.33;23.87;;;;;;;6.44;100.00;101249.22;2090468;28;20024;-68
2021/11/21 01:39:20;;;;;;;61.80;23.33;;;;;;;6.47;100.00;101250.06;2090484;28;20029;-68
2021/11/21 01:40:21;;;;;;;60.10;24.97;;;;;;;6.47;100.00;101250.06;2090593;28;20028;-69
2021/11/21 01:41:22;;;;;;;;;;;;;;;6.47;100.00;101242.28;2090917;28;20083;-69
2021/11/21 01:42:23;;;;;;;61.40;21.02;;;;;;;6.46;100.00;101248.34;2090440;28;19958;-68
2021/11/21 01:43:24;;;;;;;57.88;22.15;;;;;;;6.46;100.00;101248.34;2089724;28;20025;-67
2021/11/21 01:44:24;;;;;;;57.80;22.67;;;;;;;6.47;100.00;101243.13;2089775;28;20110;-68
2021/11/21 01:45:25;;;;;;;60.43;25.40;;;;;;;6.47;100.00;101239.69;2089862;28;20052;-68
2021/11/21 01:46:37;;;;;;;58.27;23.77;;;;;;;6.46;100.00;101240.56;2090420;28;20474;-68
2021/11/21 01:47:40;;;;;;;66.10;24.70;;;;;;;6.46;100.00;101240.56;2090400;28;20021;-69
2021/11/21 01:48:40;;;;;;;61.70;21.23;;;;;;;6.44;100.00;101233.66;2090341;28;20021;-69
2021/11/21 01:49:40;;;;;;;55.20;23.30;;;;;;;6.46;100.00;101240.56;2090312;28;20496;-69
2021/11/21 01:50:43;;;;;;;66.10;25.37;;;;;;;6.44;100.00;101231.06;2090336;28;20032;-69
2021/11/21 01:51:44;;;;;;;60.85;24.73;;;;;;;6.44;100.00;101227.63;2090373;28;20028;-67
2021/11/21 01:52:45;;;;;;;66.82;25.70;;;;;;;6.44;100.00;101228.47;2090437;28;20017;-67
2021/11/21 01:53:45;;;;;;;61.78;23.35;;;;;;;6.44;100.00;101231.06;2090306;28;20100;-69
2021/11/21 01:54:46;;;;;;;60.23;23.80;;;;;;;6.44;100.00;101233.66;2089721;28;20021;-67
2021/11/21 01:55:47;;;;;;;62.00;23.77;;;;;;;6.46;100.00;101227.59;2089767;28;20029;-70
2021/11/21 01:56:48;;;;;;;61.70;23.80;;;;;;;6.47;100.00;101218.94;2090299;28;20784;-68
2021/11/21 01:57:48;;;;;;;63.23;24.23;;;;;;;6.47;100.00;101222.41;2089689;28;20075;-68
2021/11/21 01:58:49;;;;;;;63.00;24.73;;;;;;;6.46;100.00;101220.66;2089750;28;20032;-69
2021/11/21 01:59:50;;;;;;;60.53;22.87;;;;;;;6.46;100.00;101225.00;2090319;28;20487;-68
2021/11/21 02:00:50;;;;;;;;;;;;;;;6.47;100.00;101221.53;2090138;28;20016;-68
2021/11/21 02:01:51;;;;;;;69.18;23.73;;;;;;;6.44;100.00;101218.09;2089671;28;20324;-69
2021/11/21 02:02:52;;;;;;;58.93;23.20;;;;;;;6.46;100.00;101225.84;2090276;28;20470;-68
2021/11/21 02:03:52;;;;;;;63.03;24.58;;;;;;;6.48;100.00;101216.31;2090296;28;20024;-70
2021/11/21 02:04:52;;;;;;;54.17;21.90;;;;;;;6.47;100.00;101221.53;2089661;28;20021;-68
2021/11/21 02:05:53;;;;;;;62.73;22.40;;;;;;;6.46;100.00;101212.06;2089719;28;20021;-69
2021/11/21 02:06:53;;;;;;;63.30;24.07;;;;;;;6.47;100.00;101213.75;2090342;28;20442;-68
2021/11/21 02:07:53;;;;;;;62.53;22.73;;;;;;;6.49;100.00;101217.16;2090306;28;20039;-69
2021/11/21 02:08:56;;;;;;;56.80;22.53;;;;;;;6.48;100.00;101212.84;2090333;28;20067;-71
2021/11/21 02:09:57;;;;;;;50.15;21.17;;;;;;;6.47;100.00;101212.03;2089659;28;20045;-68
2021/11/21 02:10:59;;;;;;;61.08;23.10;;;;;;;6.48;100.00;101218.03;2081464;28;20096;-70
2021/11/21 02:11:59;;;;;;;67.40;25.02;;;;;;;6.48;100.00;101218.03;2089653;28;20116;-69
2021/11/21 02:13:00;;;;;;;58.37;22.53;;;;;;;6.48;100.00;101207.66;2090699;28;20075;-69
2021/11/21 02:14:01;;;;;;;63.22;22.92;;;;;;;6.49;100.00;101207.66;2091219;28;20021;-69
2021/11/21 02:15:02;;;;;;;55.47;22.15;;;;;;;6.49;100.00;101210.25;2090714;28;20449;-68
2021/11/21 02:16:03;;;;;;;65.15;26.05;;;;;;;6.51;100.00;101207.63;2091401;28;20029;-68
2021/11/21 02:17:04;;;;;;;54.97;21.30;;;;;;;6.50;100.00;101206.75;2091889;28;20024;-68
2021/11/21 02:18:05;;;;;;;55.73;21.23;;;;;;;6.51;100.00;101208.47;2092523;28;20036;-70
2021/11/21 02:19:05;;;;;;;66.10;23.63;;;;;;;6.51;100.00;101205.88;2091594;28;20051;-69
2021/11/21 02:20:09;;;;;;;61.30;23.07;;;;;;;6.52;100.00;101198.94;2091694;28;20028;-69
2021/11/21 02:21:09;;;;;;;57.65;22.98;;;;;;;6.52;100.00;101205.00;2091175;28;20052;-68
2021/11/21 02:22:09;;;;;;;62.37;23.67;;;;;;;6.53;100.00;101205.84;2089963;28;20514;-68
2021/11/21 02:23:11;;;;;;;60.93;22.93;;;;;;;6.53;100.00;101196.31;2090227;28;20044;-70
2021/11/21 02:24:11;;;;;;;59.83;22.80;;;;;;;6.53;100.00;101196.31;2090194;28;20445;-69
2021/11/21 02:25:11;;;;;;;59.27;21.80;;;;;;;6.54;100.00;101197.19;2091263;28;20099;-69
2021/11/21 02:26:15;;;;;;;55.70;20.90;;;;;;;6.53;100.00;101193.72;2090974;28;21096;-68
2021/11/21 02:27:22;;;;;;;59.42;22.65;;;;;;;6.54;100.00;101192.84;2090808;28;20082;-68
2021/11/21 02:28:22;;;;;;;56.95;20.88;;;;;;;6.54;100.00;101181.63;2089665;28;20021;-67
2021/11/21 02:29:23;;;;;;;64.97;25.70;;;;;;;6.55;100.00;101178.16;2089581;28;20021;-67
2021/11/21 02:30:23;;;;;;;67.25;24.88;;;;;;;6.54;100.00;101181.63;2090169;28;20052;-68
2021/11/21 02:31:24;;;;;;;58.63;22.88;;;;;;;6.54;100.00;101181.63;2090161;28;20035;-68
2021/11/21 02:32:24;;;;;;;59.95;24.10;;;;;;;6.55;100.00;101172.97;2089491;28;20539;-67
2021/11/21 02:33:25;;;;;;;60.10;23.40;;;;;;;6.56;100.00;101179.84;2089575;28;20100;-69
2021/11/21 02:34:25;;;;;;;65.03;25.58;;;;;;;6.57;100.00;101186.75;2090105;28;20491;-68
2021/11/21 02:35:26;;;;;;;60.70;22.17;;;;;;;6.58;100.00;101183.28;2089448;28;20039;-69
2021/11/21 02:36:27;;;;;;;66.22;26.83;;;;;;;6.56;100.00;101174.66;2089453;28;20393;-69
2021/11/21 02:37:27;;;;;;;63.42;23.42;;;;;;;6.55;100.00;101162.59;2090030;28;20040;-69
2021/11/21 02:38:29;;;;;;;64.47;23.60;;;;;;;6.56;100.00;101165.16;2090051;28;20052;-69
2021/11/21 02:39:29;;;;;;;63.22;24.20;;;;;;;6.57;100.00;101160.84;2090079;28;20533;-68
2021/11/21 02:40:29;;;;;;;58.57;22.93;;;;;;;6.58;100.00;101159.94;2090154;28;20096;-69
2021/11/21 02:41:30;;;;;;;59.07;21.83;;;;;;;6.59;100.00;101155.59;2090116;28;20032;-69
2021/11/21 02:42:34;;;;;;;56.03;23.37;;;;;;;6.59;100.00;101158.19;2089479;28;20537;-68
2021/11/21 02:43:35;;;;;;;63.95;25.00;;;;;;;6.59;100.00;101156.44;2081528;28;20032;-68
2021/11/21 02:44:36;;;;;;;60.35;23.20;;;;;;;6.59;100.00;101155.59;2081300;28;20388;-69
2021/11/21 02:45:36;;;;;;;63.70;24.67;;;;;;;6.60;100.00;101157.31;2089503;28;20104;-68
2021/11/21 02:46:36;;;;;;;59.63;21.90;;;;;;;6.61;100.00;101153.84;2090143;28;20393;-68
2021/11/21 02:47:37;;;;;;;61.20;23.70;;;;;;;6.61;100.00;101151.25;2090059;28;20325;-69
2021/11/21 02:48:38;;;;;;;62.95;26.83;;;;;;;6.61;100.00;101152.09;2090096;28;20444;-70
2021/11/21 02:49:38;;;;;;;59.17;23.60;;;;;;;6.61;100.00;101161.63;2090103;28;20017;-68
2021/11/21 02:50:38;;;;;;;61.17;23.73;;;;;;;6.62;100.00;101153.81;2089928;28;20035;-68
2021/11/21 02:51:39;;;;;;;60.57;24.20;;;;;;;6.62;100.00;101159.00;2090039;28;20036;-67
2021/11/21 02:52:39;;;;;;;66.43;25.57;;;;;;;6.64;100.00;101159.78;2090062;28;20167;-68
2021/11/21 02:53:41;;;;;;;60.43;24.90;;;;;;;6.65;100.00;101152.88;2090053;28;20094;-68
2021/11/21 02:54:53;;;;;;;62.58;24.25;;;;;;;6.64;100.00;101152.00;2090092;28;20068;-68
2021/11/21 02:55:56;;;;;;;60.45;23.88;;;;;;;6.63;100.00;101155.50;2090004;28;20072;-68
2021/11/21 02:56:56;;;;;;;62.72;24.92;;;;;;;6.62;100.00;101151.22;2090111;28;20506;-69
2021/11/21 02:57:58;;;;;;;64.73;24.87;;;;;;;6.63;100.00;101149.44;2090094;28;20047;-69
2021/11/21 02:58:58;;;;;;;;;;;;;;;6.65;100.00;101152.88;2090453;28;20111;-68
2021/11/21 02:59:59;;;;;;;50.58;21.13;;;;;;;6.64;100.00;101146.81;2090027;28;20290;-68
2021/11/21 03:01:03;;;;;;;;;;;;;;;6.66;100.00;101139.00;2090473;28;20433;-67
2021/11/21 03:02:03;;;;;;;64.25;23.45;;;;;;;6.66;100.00;101139.88;2089888;28;19913;-70
2021/11/21 03:03:04;;;;;;;61.63;22.67;;;;;;;6.66;100.00;101133.81;2090037;28;20036;-69
2021/11/21 03:04:04;;;;;;;65.90;24.90;;;;;;;6.65;100.00;101138.19;2089338;28;20033;-70
2021/11/21 03:05:05;;;;;;;61.43;24.03;;;;;;;6.65;100.00;101143.38;2089510;28;20389;-69
2021/11/21 03:06:05;;;;;;;65.63;23.95;;;;;;;6.66;100.00;101137.28;2089992;28;20533;-69
2021/11/21 03:07:09;;;;;;;69.63;25.93;;;;;;;6.66;100.00;101144.22;2090031;28;20021;-69
2021/11/21 03:08:09;;;;;;;65.65;25.15;;;;;;;6.66;100.00;101146.78;2090016;28;20832;-68
2021/11/21 03:09:09;;;;;;;64.07;24.27;;;;;;;6.66;100.00;101144.22;2089285;28;20029;-68
2021/11/21 03:10:12;;;;;;;70.40;28.13;;;;;;;6.66;100.00;101139.88;2089343;28;20028;-68
2021/11/21 03:11:33;;;;;;;77.38;26.58;;;;;;;6.67;100.00;101140.75;2089258;28;20037;-69
2021/11/21 03:12:34;;;;;;;77.55;28.13;;;;;;;6.66;100.00;101133.81;2089471;28;20058;-69
2021/11/21 03:13:34;;;;;;;67.15;24.17;;;;;;;6.66;100.00;101139.88;2090016;28;20039;-69
2021/11/21 03:14:35;;;;;;;62.47;23.63;;;;;;;6.68;100.00;101139.84;2089915;28;20147;-69
2021/11/21 03:15:36;;;;;;;69.53;28.85;;;;;;;6.67;100.00;101133.81;2089977;28;20119;-69
2021/11/21 03:16:36;;;;;;;69.40;26.50;;;;;;;6.67;100.00;101135.56;2089285;28;20056;-69
2021/11/21 03:17:39;;;;;;;62.00;23.07;;;;;;;6.67;100.00;101125.19;2089352;28;20030;-68
2021/11/21 03:18:39;;;;;;;62.38;23.00;;;;;;;6.67;100.00;101120.84;2089299;28;20021;-69
2021/11/21 03:19:39;;;;;;;75.07;24.07;;;;;;;6.68;100.00;101122.53;2089416;28;20499;-68
2021/11/21 03:20:41;;;;;;;78.57;28.90;;;;;;;6.67;100.00;101120.84;2089307;28;20017;-69
2021/11/21 03:21:41;;;;;;;64.82;27.23;;;;;;;6.68;100.00;101116.50;2089361;28;20028;-68
2021/11/21 03:22:43;;;;;;;63.55;24.80;;;;;;;6.68;100.00;101119.94;2089920;28;20029;-69
2021/11/21 03:23:43;;;;;;;66.80;25.02;;;;;;;6.69;100.00;101108.69;2089271;28;20033;-67
2021/11/21 03:24:45;;;;;;;68.10;26.03;;;;;;;6.69;100.00;101108.69;2089411;28;20033;-68
2021/11/21 03:25:45;;;;;;;70.00;28.02;;;;;;;6.69;100.00;101113.03;2089952;28;20494;-68
2021/11/21 03:26:46;;;;;;;70.33;25.80;;;;;;;6.70;100.00;101114.72;2089690;28;20083;-69
2021/11/21 03:27:47;;;;;;;68.97;25.48;;;;;;;6.69;100.00;101108.69;2089955;28;20033;-69
2021/11/21 03:28:47;;;;;;;66.25;24.02;;;;;;;6.70;100.00;101115.59;2089877;28;20020;-68
2021/11/21 03:29:47;;;;;;;69.30;27.30;;;;;;;6.70;100.00;101110.41;2089189;28;20021;-67
2021/11/21 03:30:48;;;;;;;67.93;25.23;;;;;;;6.69;100.00;101108.69;2089291;28;20031;-67
2021/11/21 03:31:48;;;;;;;67.13;25.37;;;;;;;6.70;100.00;101110.41;2089913;28;20488;-67
2021/11/21 03:32:50;;;;;;;74.80;27.97;;;;;;;6.72;100.00;101112.09;2089247;28;20020;-68
2021/11/21 03:33:50;;;;;;;72.43;26.27;;;;;;;6.72;100.00;101109.50;2089247;28;20481;-68
2021/11/21 03:34:50;;;;;;;67.73;25.87;;;;;;;6.72;100.00;101106.91;2089925;28;20056;-69
2021/11/21 03:35:51;;;;;;;78.53;28.37;;;;;;;6.72;100.00;101106.91;2089825;28;20021;-69
2021/11/21 03:36:51;;;;;;;77.30;25.87;;;;;;;6.72;100.00;101107.78;2089200;28;20063;-69
2021/11/21 03:37:52;;;;;;;72.77;27.83;;;;;;;6.72;100.00;101105.19;2089305;28;20102;-68
2021/11/21 03:38:52;;;;;;;77.70;25.57;;;;;;;6.72;100.00;101106.91;2089088;28;20815;-66
2021/11/21 03:39:52;;;;;;;70.63;25.57;;;;;;;6.72;100.00;101106.91;2081441;28;20028;-69
2021/11/21 03:40:52;;;;;;;71.83;24.23;;;;;;;6.70;100.00;101110.41;2090758;28;20040;-69
2021/11/21 03:41:53;;;;;;;69.73;25.97;;;;;;;6.73;100.00;101106.00;2090703;28;20120;-68
2021/11/21 03:42:53;;;;;;;67.00;25.20;;;;;;;6.72;100.00;101101.72;2090837;28;20371;-69
2021/11/21 03:43:53;;;;;;;67.97;24.87;;;;;;;6.74;100.00;101105.97;2091377;28;20032;-68
2021/11/21 03:44:54;;;;;;;75.83;26.83;;;;;;;6.75;100.00;101106.84;2091378;28;20025;-70
2021/11/21 03:45:54;;;;;;;77.50;26.77;;;;;;;6.75;100.00;101106.84;2091347;28;20021;-68
2021/11/21 03:46:55;;;;;;;74.27;26.73;;;;;;;6.75;100.00;101099.94;2090734;28;20063;-68
2021/11/21 03:47:55;;;;;;;68.00;25.30;;;;;;;6.75;100.00;101097.34;2090746;28;20286;-67
2021/11/21 03:48:56;;;;;;;75.83;28.03;;;;;;;6.75;100.00;101102.53;2091365;28;20452;-67
2021/11/21 03:49:56;;;;;;;71.20;24.48;;;;;;;6.76;100.00;101092.97;2091279;28;20364;-68
2021/11/21 03:50:57;;;;;;;73.10;27.50;;;;;;;6.76;100.00;101091.25;2091228;28;20070;-68
2021/11/21 03:51:57;;;;;;;73.18;27.80;;;;;;;6.77;100.00;101094.72;2091322;28;20029;-66
2021/11/21 03:52:58;;;;;;;72.90;26.33;;;;;;;6.76;100.00;101080.00;2090684;28;20056;-67
2021/11/21 03:53:58;;;;;;;81.63;30.07;;;;;;;6.75;100.00;101083.50;2090740;28;20029;-69
2021/11/21 03:54:59;;;;;;;74.40;26.67;;;;;;;6.77;100.00;101084.34;2091351;28;20111;-68
2021/11/21 03:55:59;;;;;;;73.43;26.90;;;;;;;6.78;100.00;101083.44;2091276;28;20060;-70
2021/11/21 03:56:59;;;;;;;77.87;29.33;;;;;;;6.77;100.00;101081.75;2091309;28;20071;-69
2021/11/21 03:58:00;;;;;;;71.57;25.23;;;;;;;6.78;100.00;101080.84;2091192;28;20440;-68
2021/11/21 03:59:00;;;;;;;69.30;26.23;;;;;;;6.78;100.00;101080.84;2091267;28;20033;-69
2021/11/21 04:00:01;;;;;;;73.13;26.83;;;;;;;6.77;100.00;101074.78;2091311;28;20082;-69
2021/11/21 04:01:02;;;;;;;78.03;27.40;;;;;;;6.78;100.00;101071.31;2091267;28;20024;-69
2021/11/21 04:02:03;;;;;;;78.68;28.98;;;;;;;6.79;100.00;101077.34;2091219;28;20024;-69
2021/11/21 04:03:05;;;;;;;78.70;28.63;;;;;;;6.79;100.00;101075.63;2091194;28;20535;-67
2021/11/21 04:04:06;;;;;;;76.68;29.00;;;;;;;6.79;100.00;101072.16;2091239;28;20075;-69
2021/11/21 04:05:08;;;;;;;85.80;30.30;;;;;;;6.80;100.00;101076.47;2091215;28;20067;-68
2021/11/21 04:06:10;;;;;;;83.43;31.27;;;;;;;6.79;100.00;101072.16;2091228;28;20025;-67
2021/11/21 04:07:10;;;;;;;87.20;28.95;;;;;;;6.79;100.00;101072.16;2091166;28;20025;-67
2021/11/21 04:08:10;;;;;;;84.43;30.37;;;;;;;6.79;100.00;101077.34;2091271;28;20032;-69
2021/11/21 04:09:11;;;;;;;75.83;28.37;;;;;;;6.80;100.00;101068.69;2091151;28;20057;-67
2021/11/21 04:10:12;;;;;;;79.37;27.47;;;;;;;6.80;100.00;101079.91;2090515;28;20102;-68
2021/11/21 04:11:12;;;;;;;77.78;28.23;;;;;;;6.80;100.00;101073.88;2082185;28;20037;-68
2021/11/21 04:12:13;;;;;;;80.53;28.70;;;;;;;6.80;100.00;101066.94;2090650;28;20062;-69
2021/11/21 04:13:13;;;;;;;83.87;34.33;;;;;;;6.82;100.00;101077.28;2091121;28;20025;-68
2021/11/21 04:14:15;;;;;;;81.40;28.80;;;;;;;6.80;100.00;101069.53;2091227;28;20090;-69
2021/11/21 04:15:15;;;;;;;;;;;;;;;6.82;100.00;101064.31;2091475;28;20032;-70
2021/11/21 04:16:15;;;;;;;76.70;25.75;;;;;;;6.82;100.00;101062.56;2093939;28;19908;-68
2021/11/21 04:17:16;;;;;;;78.17;27.37;;;;;;;6.82;100.00;101057.38;2090453;28;20536;-70
2021/11/21 04:18:16;;;;;;;74.53;25.47;;;;;;;6.83;100.00;101068.63;2090534;28;20035;-70
2021/11/21 04:19:16;;;;;;;77.73;27.73;;;;;;;6.83;100.00;101058.22;2091078;28;20021;-69
2021/11/21 04:20:17;;;;;;;76.47;28.87;;;;;;;6.83;100.00;101053.03;2091151;28;20455;-69
2021/11/21 04:21:17;;;;;;;79.83;28.83;;;;;;;6.83;100.00;101055.63;2091111;28;20025;-69
2021/11/21 04:22:17;;;;;;;73.57;27.23;;;;;;;6.85;100.00;101050.41;2090412;28;20025;-68
2021/11/21 04:23:18;;;;;;;81.30;28.33;;;;;;;6.85;100.00;101055.59;2090492;28;20036;-68
2021/11/21 04:24:18;;;;;;;79.03;26.58;;;;;;;6.85;100.00;101050.41;2091068;28;20078;-68
2021/11/21 04:25:19;;;;;;;78.17;28.00;;;;;;;6.85;100.00;101053.00;2091049;28;20060;-69
2021/11/21 04:26:19;;;;;;;90.20;32.43;;;;;;;6.86;100.00;101057.31;2090979;28;20065;-69
2021/11/21 04:27:20;;;;;;;74.17;26.53;;;;;;;6.86;100.00;101055.56;2091102;28;20051;-68
2021/11/21 04:28:20;;;;;;;85.38;29.92;;;;;;;6.85;100.00;101053.88;2090325;28;20040;-70
2021/11/21 04:29:21;;;;;;;83.47;30.47;;;;;;;6.87;100.00;101053.84;2090505;28;20088;-69
2021/11/21 04:30:21;;;;;;;72.23;26.67;;;;;;;6.87;100.00;101054.69;2090936;28;20382;-69
2021/11/21 04:31:21;;;;;;;74.10;25.67;;;;;;;6.86;100.00;101047.78;2090329;28;20025;-70
2021/11/21 04:32:22;;;;;;;76.57;27.87;;;;;;;6.88;100.00;101052.94;2090415;28;20029;-69
2021/11/21 04:33:23;;;;;;;84.57;28.88;;;;;;;6.88;100.00;101051.19;2090950;28;20112;-71
2021/11/21 04:34:23;;;;;;;79.10;29.23;;;;;;;6.88;100.00;101051.19;2090976;28;20517;-69
2021/11/21 04:35:24;;;;;;;79.67;28.13;;;;;;;6.88;100.00;101046.00;2090937;28;20037;-69
2021/11/21 04:36:24;;;;;;;82.87;28.73;;;;;;;6.88;100.00;101051.19;2091070;28;20040;-71
2021/11/21 04:37:25;;;;;;;80.60;28.93;;;;;;;6.88;100.00;101051.19;2090966;28;20090;-69
2021/11/21 04:38:25;;;;;;;84.28;29.55;;;;;;;6.89;100.00;101052.91;2091051;28;20036;-70